Alturas Municipal, CA

11:51 PM PDT on October 22, 2014 (GMT -0700)
Mount Shasta | Change Station
CLOSE
Current Station
Airport
Location: Mount Shasta,
Elevation: 3533 ft
Nearby Weather Stations

Elev 3533 ft 41.32 °N, 122.32 °W | Updated 55 minutes ago

Overcast
Overcast
48 °F
Feels Like 48 °F
N
4
Wind Variable Wind from Variable

Today
High -- | Low -- °F
--% Chance of Precip.
Yesterday
High -- | Low -- °F
Precip. -- in
7:22 AM 6:10 PM
Waning Crescent, 0% visible
Pressure 30.10 in
Visibility 10.0 miles
Clouds Scattered Clouds 4000 ft
Overcast 4800 ft
Dew Point 44 °F
Humidity 86%
Rainfall 0.04 in
Snow Depth 0 in
UV 0 out of 12
Pollen 2.50 out of 12
Air Quality Not available.
Flu Activity Sporadic
METAR KMHS 230556Z AUTO VRB03KT 10SM -RA SCT040 OVC048 09/07 A3007 RMK AO2 SLP191 P0003 60004 T00890067 10117 20089 51016

More Conditions Fewer Conditions

Pressure 30.10 in
Visibility 10.0 miles
Clouds Scattered Clouds 4000 ft
Overcast 4800 ft
Dew Point 44 °F
Humidity 86%
Rainfall 0.04 in
Snow Depth 0 in
UV 0 out of 12
Pollen 2.50 out of 12
Air Quality Not available.
Flu Activity Sporadic
METAR KMHS 230556Z AUTO VRB03KT 10SM -RA SCT040 OVC048 09/07 A3007 RMK AO2 SLP191 P0003 60004 T00890067 10117 20089 51016

More Conditions Fewer Conditions

10-Day Weather Forecast

Almanac

Astronomy

Oct. 22, 2014 Rise Set
Actual Time 7:22 AM PDT 6:10 PM PDT
Civil Twilight 6:54 AM PDT 6:38 PM PDT
Nautical Twilight 6:21 AM PDT 7:10 PM PDT
Astronomical Twilight 5:49 AM PDT 7:42 PM PDT
Moon 6:07 AM PDT (10/22) 5:40 PM PDT (10/22)
Length of Visible Light 11h 44m
Length of Day
10h 48m
Tomorrow will be 2m 36s shorter.
Waning Crescent, 0% of the Moon is Illuminated
Oct 23
Waning Crescent
Oct 23
New
Oct 30
First Quarter
Nov 6
Full
Nov 14
Last Quarter

Community

WunderPhotos

Upload Photos

1,764,194 photos uploaded!

Nearby

Snow Depth

Station Depth Elevation
Adin Mountain 0 in 6200 ft
Crowder Flat 0 in 5100 ft
Independence Camp 0 in 7000 ft
Independence Lake 0 in 8450 ft
Tahoe City Cross 0 in 6750 ft

Earthquake Activity

City Distance Mag. Time & Date
No recent earthquake activity has been reported nearby.
Minimum magnitude displayed is 2.5.

Coastal Water Temperatures

Place Temperature
No Stations Reporting

Nearby Weather Stations